createdAt,value
2023-04-24T00:00:00.758Z,35.19
2023-04-24T00:02:28.619Z,35.40
2023-04-24T00:04:56.356Z,35.21
2023-04-24T00:07:24.192Z,35.64
2023-04-24T00:09:51.771Z,35.85
2023-04-24T00:12:19.254Z,35.65
2023-04-24T00:14:46.875Z,35.72
2023-04-24T00:17:15.108Z,35.90
2023-04-24T00:19:42.995Z,36.11
2023-04-24T00:22:12.047Z,35.97
2023-04-24T00:24:39.752Z,36.15
2023-04-24T00:27:07.308Z,36.21
2023-04-24T00:29:35.804Z,36.42
2023-04-24T00:32:03.824Z,36.25
2023-04-24T00:34:33.692Z,36.36
2023-04-24T00:37:01.371Z,36.48
2023-04-24T00:39:29.268Z,36.54
2023-04-24T00:41:57.864Z,36.68
2023-04-24T00:44:25.884Z,36.63
2023-04-24T00:46:55.879Z,36.76
2023-04-24T00:49:23.736Z,36.77
2023-04-24T00:51:52.378Z,36.84
2023-04-24T00:54:20.028Z,37.16
2023-04-24T00:56:48.019Z,37.23
2023-04-24T00:59:18.601Z,37.61
2023-04-24T01:01:47.106Z,37.35
2023-04-24T01:04:16.656Z,37.90
2023-04-24T01:06:45.543Z,37.83
2023-04-24T01:09:15.611Z,37.66
2023-04-24T01:11:44.413Z,37.63
2023-04-24T01:14:13.649Z,37.59
2023-04-24T01:16:42.974Z,37.60
2023-04-24T01:19:12.192Z,37.64
2023-04-24T01:21:40.979Z,37.83
2023-04-24T01:24:08.966Z,38.18
2023-04-24T01:26:36.731Z,38.07
2023-04-24T01:29:04.549Z,38.04
2023-04-24T01:31:33.256Z,38.41
2023-04-24T01:34:01.489Z,38.34
2023-04-24T01:36:30.877Z,38.40
2023-04-24T01:38:58.466Z,38.43
2023-04-24T01:41:28.644Z,38.19
2023-04-24T01:43:56.359Z,38.26
2023-04-24T01:46:24.121Z,38.37
2023-04-24T01:48:53.604Z,38.55
2023-04-24T01:51:21.620Z,38.67
2023-04-24T01:53:49.345Z,38.56
2023-04-24T01:56:16.953Z,38.51
2023-04-24T01:58:45.044Z,38.78
2023-04-24T02:01:19.042Z,39.34
2023-04-24T02:03:49.156Z,38.81
2023-04-24T02:06:17.792Z,38.88
2023-04-24T02:08:45.551Z,38.55
2023-04-24T02:11:13.033Z,39.13
2023-04-24T02:13:40.732Z,39.05
2023-04-24T02:16:08.488Z,39.11
2023-04-24T02:18:56.136Z,39.04
2023-04-24T02:21:26.420Z,39.02
2023-04-24T02:23:54.005Z,39.18
2023-04-24T02:26:21.952Z,39.04
2023-04-24T02:28:49.791Z,39.06
2023-04-24T02:31:17.623Z,38.96
2023-04-24T02:33:45.319Z,39.11
2023-04-24T02:36:12.973Z,38.91
2023-04-24T02:38:40.802Z,38.83
2023-04-24T02:41:08.656Z,38.89
2023-04-24T02:43:36.298Z,39.09
2023-04-24T02:46:04.025Z,38.72
2023-04-24T02:48:31.710Z,39.03
2023-04-24T02:50:59.336Z,39.00
2023-04-24T02:53:26.923Z,38.98
2023-04-24T02:55:54.662Z,39.08
2023-04-24T02:58:22.452Z,38.99
2023-04-24T03:00:50.412Z,39.14
2023-04-24T03:03:18.677Z,38.94
2023-04-24T03:05:46.858Z,38.92
2023-04-24T03:08:15.606Z,38.91
2023-04-24T03:10:45.246Z,38.74
2023-04-24T03:13:17.838Z,38.64
2023-04-24T03:15:46.217Z,38.36
2023-04-24T03:18:14.006Z,38.04
2023-04-24T03:20:41.701Z,37.71
2023-04-24T03:23:09.690Z,37.69
2023-04-24T03:25:38.146Z,37.95
2023-04-24T03:28:06.494Z,37.77
2023-04-24T03:30:46.608Z,37.33
2023-04-24T03:33:15.176Z,37.35
2023-04-24T03:35:52.414Z,36.61
2023-04-24T03:38:20.585Z,36.22
2023-04-24T03:41:11.488Z,35.81
2023-04-24T03:44:02.052Z,35.59
2023-04-24T03:46:29.657Z,35.54
2023-04-24T03:49:00.785Z,35.17
2023-04-24T03:51:33.217Z,35.28
2023-04-24T03:54:12.653Z,35.17
2023-04-24T03:56:41.344Z,35.09
2023-04-24T03:59:09.693Z,35.08
2023-04-24T04:01:38.375Z,34.96
2023-04-24T04:04:14.933Z,34.64
2023-04-24T04:06:45.143Z,34.53
2023-04-24T04:09:13.574Z,34.13
2023-04-24T04:11:41.322Z,33.80
2023-04-24T04:14:09.202Z,33.73
2023-04-24T04:16:40.340Z,33.80
2023-04-24T04:19:09.630Z,33.44
2023-04-24T04:21:37.461Z,33.41
2023-04-24T04:24:18.594Z,33.58
2023-04-24T04:26:48.196Z,33.09
2023-04-24T04:29:29.719Z,32.82
2023-04-24T04:31:57.715Z,32.53
2023-04-24T04:34:25.408Z,32.11
2023-04-24T04:36:53.767Z,31.87
2023-04-24T04:39:39.981Z,31.63
2023-04-24T04:42:11.740Z,30.92
2023-04-24T04:44:43.833Z,30.34
2023-04-24T04:47:17.278Z,30.33
2023-04-24T04:49:45.502Z,30.10
2023-04-24T04:52:26.255Z,29.96
2023-04-24T04:55:00.580Z,29.29
2023-04-24T04:57:42.435Z,29.59
2023-04-24T05:00:11.689Z,29.61
2023-04-24T05:02:47.523Z,29.23
2023-04-24T05:05:18.611Z,28.78
2023-04-24T05:07:46.915Z,28.06
2023-04-24T05:10:14.539Z,28.21
2023-04-24T05:12:44.208Z,27.76
2023-04-24T05:15:13.400Z,27.74
2023-04-24T05:17:41.699Z,27.24
2023-04-24T05:20:10.930Z,26.89
2023-04-24T05:22:39.631Z,26.59
2023-04-24T05:25:08.804Z,26.01
2023-04-24T05:27:48.057Z,25.52
2023-04-24T05:30:18.314Z,25.21
2023-04-24T05:32:46.168Z,25.03
2023-04-24T05:35:14.880Z,25.08
2023-04-24T05:37:42.554Z,25.25
2023-04-24T05:40:12.236Z,24.66
2023-04-24T05:42:40.079Z,24.65
2023-04-24T05:45:08.428Z,24.33
2023-04-24T05:47:36.709Z,24.05
2023-04-24T05:50:04.588Z,23.57
2023-04-24T05:52:33.281Z,23.45
2023-04-24T05:55:04.477Z,22.43
2023-04-24T05:57:34.872Z,21.96
2023-04-24T06:00:05.434Z,21.64
2023-04-24T06:02:41.800Z,21.66
2023-04-24T06:05:13.185Z,21.07
2023-04-24T06:07:41.533Z,20.71
2023-04-24T06:10:10.760Z,20.88
2023-04-24T06:12:42.934Z,20.56
2023-04-24T06:15:16.720Z,20.65
2023-04-24T06:17:54.245Z,20.36
2023-04-24T06:20:22.414Z,20.29
2023-04-24T06:22:50.154Z,19.84
2023-04-24T06:25:17.830Z,19.66
2023-04-24T06:27:47.340Z,19.53
2023-04-24T06:30:15.104Z,19.16
2023-04-24T06:32:42.690Z,18.94
2023-04-24T06:35:12.609Z,18.32
2023-04-24T06:37:41.467Z,18.31
2023-04-24T06:40:09.752Z,18.20
2023-04-24T06:42:37.818Z,17.90
2023-04-24T06:45:07.008Z,17.68
2023-04-24T06:47:36.237Z,17.51
2023-04-24T06:50:04.178Z,16.96
2023-04-24T06:52:35.237Z,16.95
2023-04-24T06:55:04.347Z,17.04
2023-04-24T06:57:33.914Z,16.85
2023-04-24T07:00:01.437Z,16.23
2023-04-24T07:02:33.793Z,16.26
2023-04-24T07:05:02.403Z,16.08
2023-04-24T07:07:32.395Z,16.16
2023-04-24T07:10:00.290Z,16.10
2023-04-24T07:12:28.131Z,15.73
2023-04-24T07:14:55.953Z,15.40
2023-04-24T07:17:23.544Z,15.27
2023-04-24T07:19:51.145Z,15.09
2023-04-24T07:22:18.821Z,14.43
2023-04-24T07:24:46.781Z,15.20
2023-04-24T07:27:16.281Z,14.81
2023-04-24T07:29:44.761Z,14.40
2023-04-24T07:32:12.732Z,14.03
2023-04-24T07:34:40.411Z,14.07
2023-04-24T07:37:08.035Z,13.85
2023-04-24T07:39:35.627Z,13.55
2023-04-24T07:42:04.817Z,13.99
2023-04-24T07:44:33.242Z,13.14
2023-04-24T07:47:01.044Z,13.17
2023-04-24T07:49:29.030Z,13.19
2023-04-24T07:51:56.668Z,13.27
2023-04-24T07:54:24.335Z,12.98
2023-04-24T07:56:52.108Z,13.00
2023-04-24T07:59:19.678Z,12.95
2023-04-24T08:01:47.440Z,12.43
2023-04-24T08:04:15.631Z,11.88
2023-04-24T08:06:43.626Z,11.53
2023-04-24T08:09:11.314Z,11.09
2023-04-24T08:11:38.759Z,10.97
2023-04-24T08:14:06.666Z,10.38
2023-04-24T08:16:34.662Z,10.12
2023-04-24T08:19:02.709Z,10.57
2023-04-24T08:21:30.222Z,10.59
2023-04-24T08:23:57.820Z,10.15
2023-04-24T08:26:25.854Z,10.09
2023-04-24T08:28:53.465Z,9.99
2023-04-24T08:31:21.301Z,9.56
2023-04-24T08:33:48.791Z,9.60
2023-04-24T08:36:16.351Z,9.75
2023-04-24T08:38:43.937Z,9.67
2023-04-24T08:41:18.540Z,9.85
2023-04-24T08:43:54.696Z,9.73
2023-04-24T08:46:27.179Z,9.45
2023-04-24T08:48:55.164Z,9.86
2023-04-24T08:51:23.789Z,10.81
2023-04-24T08:53:54.817Z,11.52
2023-04-24T08:56:24.489Z,11.42
2023-04-24T08:58:53.963Z,11.41
2023-04-24T09:01:22.146Z,11.04
2023-04-24T09:03:50.170Z,10.23
2023-04-24T09:06:19.230Z,10.25
2023-04-24T09:08:48.312Z,10.97
2023-04-24T09:11:16.122Z,11.47
2023-04-24T09:13:44.693Z,12.16
2023-04-24T09:16:12.893Z,12.68
2023-04-24T09:18:40.507Z,13.32
2023-04-24T09:21:09.912Z,13.25
2023-04-24T09:23:37.556Z,12.85
2023-04-24T09:26:06.195Z,12.35
2023-04-24T09:28:37.921Z,12.16
2023-04-24T09:31:05.494Z,12.50
2023-04-24T09:33:33.257Z,13.25
2023-04-24T09:36:01.540Z,13.49
2023-04-24T09:38:39.662Z,12.36
2023-04-24T09:41:09.364Z,10.97
2023-04-24T09:43:37.153Z,9.92
2023-04-24T09:46:09.794Z,9.36
2023-04-24T09:48:38.909Z,9.09
2023-04-24T09:51:12.604Z,8.96
2023-04-24T09:53:43.143Z,9.35
2023-04-24T09:56:14.856Z,10.61
2023-04-24T09:58:42.593Z,11.48
2023-04-24T10:01:10.276Z,11.85
2023-04-24T10:03:37.879Z,11.06
2023-04-24T10:06:10.372Z,10.63
2023-04-24T10:08:38.693Z,10.40
2023-04-24T10:11:07.341Z,11.48
2023-04-24T10:13:35.823Z,12.02
2023-04-24T10:16:05.182Z,12.31
2023-04-24T10:18:33.891Z,12.77
2023-04-24T10:21:02.394Z,13.60
2023-04-24T10:23:31.385Z,13.77
2023-04-24T10:26:01.436Z,13.08
2023-04-24T10:28:32.830Z,11.29
2023-04-24T10:31:01.482Z,10.17
2023-04-24T10:33:31.742Z,9.77
2023-04-24T10:35:59.860Z,9.45
2023-04-24T10:38:30.744Z,8.78
2023-04-24T10:41:09.290Z,8.44
2023-04-24T10:43:37.135Z,8.59
2023-04-24T10:46:07.043Z,9.49
2023-04-24T10:48:35.665Z,9.95
2023-04-24T10:51:03.771Z,8.86
2023-04-24T10:53:32.251Z,8.59
2023-04-24T10:56:05.580Z,8.53
2023-04-24T10:58:54.864Z,7.99
2023-04-24T11:01:29.076Z,7.10
2023-04-24T11:03:59.436Z,6.66
2023-04-24T11:06:38.126Z,7.03
2023-04-24T11:09:08.448Z,6.71
2023-04-24T11:11:41.576Z,6.26
2023-04-24T11:14:09.595Z,6.84
2023-04-24T11:16:45.688Z,7.41
2023-04-24T11:19:16.525Z,8.43
2023-04-24T11:22:01.441Z,9.00
2023-04-24T11:24:40.183Z,10.09
2023-04-24T11:27:20.990Z,10.76
2023-04-24T11:29:58.357Z,10.82
2023-04-24T11:32:43.472Z,11.71
2023-04-24T11:35:23.329Z,12.42
2023-04-24T11:40:26.759Z,9.67
2023-04-24T11:42:56.681Z,8.34
2023-04-24T11:45:29.700Z,7.92
2023-04-24T11:47:58.160Z,7.18
2023-04-24T11:50:28.827Z,7.32
2023-04-24T11:52:57.190Z,6.79
2023-04-24T11:55:27.974Z,6.91
2023-04-24T11:58:00.493Z,6.38
2023-04-24T12:00:30.446Z,6.60
2023-04-24T12:03:12.647Z,6.57
2023-04-24T12:05:41.815Z,6.29
2023-04-24T12:08:10.548Z,6.16
2023-04-24T12:10:38.534Z,6.16
2023-04-24T12:13:06.591Z,6.08
2023-04-24T12:15:34.320Z,6.09
2023-04-24T12:18:02.113Z,6.29
2023-04-24T12:20:32.664Z,7.12
2023-04-24T12:23:02.064Z,8.33
2023-04-24T12:25:32.095Z,9.52
2023-04-24T12:28:05.988Z,10.46
2023-04-24T12:30:38.411Z,10.25
2023-04-24T12:33:06.238Z,9.99
2023-04-24T12:35:35.063Z,10.22
2023-04-24T12:38:15.759Z,9.71
2023-04-24T12:40:44.739Z,8.75
2023-04-24T12:43:20.300Z,8.18
2023-04-24T12:45:51.027Z,7.94
2023-04-24T12:48:18.795Z,8.99
2023-04-24T12:50:47.461Z,10.14
2023-04-24T12:53:21.836Z,10.84
2023-04-24T12:55:54.726Z,11.74
2023-04-24T12:58:22.992Z,12.11
2023-04-24T13:00:50.882Z,13.13
2023-04-24T13:03:19.297Z,13.26
2023-04-24T13:05:47.556Z,13.64
2023-04-24T13:08:15.229Z,13.61
2023-04-24T13:10:43.089Z,13.54
2023-04-24T13:13:10.772Z,13.39
2023-04-24T13:15:38.365Z,13.94
2023-04-24T13:18:06.178Z,14.99
2023-04-24T13:20:33.890Z,15.37
2023-04-24T13:23:01.763Z,15.63
2023-04-24T13:25:32.543Z,15.98
2023-04-24T13:28:02.552Z,16.19
2023-04-24T13:30:30.388Z,16.52
2023-04-24T13:32:58.152Z,16.50
2023-04-24T13:35:25.908Z,16.76
2023-04-24T13:37:53.435Z,16.83
2023-04-24T13:40:21.091Z,17.07
2023-04-24T13:42:48.799Z,16.92
2023-04-24T13:45:25.245Z,16.83
2023-04-24T13:47:54.676Z,16.78
2023-04-24T13:50:22.901Z,16.71
2023-04-24T13:52:50.494Z,16.78
2023-04-24T13:55:21.150Z,16.87
2023-04-24T13:57:50.157Z,17.02
2023-04-24T14:00:18.447Z,17.13
2023-04-24T14:02:46.212Z,17.17
2023-04-24T14:05:16.276Z,17.28
2023-04-24T14:07:43.733Z,17.34
2023-04-24T14:10:11.657Z,17.58
2023-04-24T14:12:39.377Z,17.44
2023-04-24T14:15:07.584Z,17.55
2023-04-24T14:17:35.351Z,17.61
2023-04-24T14:20:04.914Z,17.54
2023-04-24T14:22:34.167Z,18.08
2023-04-24T14:25:01.832Z,17.75
2023-04-24T14:27:31.593Z,17.74
2023-04-24T14:29:59.337Z,17.88
2023-04-24T14:32:27.140Z,17.97
2023-04-24T14:34:54.760Z,17.99
2023-04-24T14:37:22.384Z,18.21
2023-04-24T14:40:00.630Z,18.15
2023-04-24T14:42:37.527Z,18.74
2023-04-24T14:45:05.689Z,18.59
2023-04-24T14:47:33.561Z,18.69
2023-04-24T14:50:01.466Z,18.59
2023-04-24T14:52:31.591Z,18.32
2023-04-24T14:54:59.221Z,18.60
2023-04-24T14:57:27.352Z,18.48
2023-04-24T14:59:54.862Z,18.64
2023-04-24T15:02:22.741Z,18.57
2023-04-24T15:04:50.635Z,18.73
2023-04-24T15:07:18.542Z,19.03
2023-04-24T15:09:48.165Z,19.04
2023-04-24T15:12:15.983Z,19.60
2023-04-24T15:14:43.579Z,18.93
2023-04-24T15:17:11.083Z,19.07
2023-04-24T15:19:39.006Z,19.08
2023-04-24T15:22:06.551Z,18.90
2023-04-24T15:24:34.240Z,19.01
2023-04-24T15:27:02.881Z,19.38
2023-04-24T15:29:30.864Z,19.56
2023-04-24T15:31:58.831Z,19.35
2023-04-24T15:34:26.481Z,19.43
2023-04-24T15:36:53.961Z,19.31
2023-04-24T15:39:26.684Z,19.50
2023-04-24T15:41:54.459Z,19.50
2023-04-24T15:44:22.892Z,19.61
2023-04-24T15:46:52.426Z,19.49
2023-04-24T15:49:20.078Z,19.56
2023-04-24T15:51:47.755Z,19.84
2023-04-24T15:54:15.420Z,19.85
2023-04-24T15:56:44.737Z,20.00
2023-04-24T15:59:12.390Z,20.19
2023-04-24T16:01:40.463Z,20.25
2023-04-24T16:04:08.586Z,20.39
2023-04-24T16:06:37.000Z,20.28
2023-04-24T16:09:04.533Z,20.19
2023-04-24T16:11:34.130Z,20.02
2023-04-24T16:14:02.071Z,19.97
2023-04-24T16:16:29.605Z,20.29
2023-04-24T16:18:57.205Z,20.56
2023-04-24T16:21:26.349Z,20.80
2023-04-24T16:23:53.942Z,20.95
2023-04-24T16:26:21.741Z,21.70
2023-04-24T16:28:50.572Z,21.38
2023-04-24T16:31:18.397Z,20.81
2023-04-24T16:33:46.013Z,20.99
2023-04-24T16:36:13.716Z,21.25
2023-04-24T16:38:41.548Z,21.10
2023-04-24T16:41:09.291Z,21.24
2023-04-24T16:43:37.037Z,21.54
2023-04-24T16:46:04.760Z,21.42
2023-04-24T16:48:33.808Z,21.96
2023-04-24T16:51:01.710Z,22.24
2023-04-24T16:53:29.396Z,22.33
2023-04-24T16:55:57.203Z,22.46
2023-04-24T16:58:25.130Z,22.74
2023-04-24T17:00:52.731Z,22.40
2023-04-24T17:03:23.461Z,22.16
2023-04-24T17:05:51.436Z,22.14
2023-04-24T17:08:19.537Z,22.31
2023-04-24T17:10:47.069Z,22.73
2023-04-24T17:13:15.459Z,22.68
2023-04-24T17:15:43.219Z,22.85
2023-04-24T17:18:11.463Z,22.71
2023-04-24T17:20:39.539Z,22.52
2023-04-24T17:23:07.414Z,22.71
2023-04-24T17:25:35.056Z,22.85
2023-04-24T17:28:02.626Z,22.73
2023-04-24T17:30:30.338Z,22.63
2023-04-24T17:32:57.895Z,22.92
2023-04-24T17:35:25.717Z,23.13
2023-04-24T17:37:53.267Z,23.17
2023-04-24T17:40:20.968Z,23.06
2023-04-24T17:42:48.624Z,23.05
2023-04-24T17:45:16.596Z,23.14
2023-04-24T17:47:44.211Z,22.75
2023-04-24T17:50:12.629Z,23.07
2023-04-24T17:52:40.198Z,23.34
2023-04-24T17:55:08.311Z,23.09
2023-04-24T17:57:35.942Z,23.21
2023-04-24T18:00:04.449Z,23.00
2023-04-24T18:02:36.864Z,23.22
2023-04-24T18:05:04.805Z,22.95
2023-04-24T18:07:33.879Z,23.16
2023-04-24T18:10:01.433Z,23.28
2023-04-24T18:12:31.395Z,23.08
2023-04-24T18:15:13.029Z,23.30
2023-04-24T18:17:42.251Z,23.37
2023-04-24T18:20:10.150Z,23.53
2023-04-24T18:22:38.138Z,23.44
2023-04-24T18:25:06.249Z,23.63
2023-04-24T18:27:34.125Z,23.45
2023-04-24T18:30:03.216Z,23.43
2023-04-24T18:32:35.355Z,23.46
2023-04-24T18:35:04.111Z,23.46
2023-04-24T18:37:35.007Z,23.60
2023-04-24T18:40:03.848Z,23.50
2023-04-24T18:42:32.482Z,23.57
2023-04-24T18:45:01.972Z,24.05
2023-04-24T18:47:34.376Z,24.06
2023-04-24T18:50:02.116Z,23.81
2023-04-24T18:52:34.603Z,23.52
2023-04-24T18:55:04.218Z,23.54
2023-04-24T18:57:33.837Z,23.92
2023-04-24T19:00:01.598Z,24.25
2023-04-24T19:02:35.531Z,23.78
2023-04-24T19:05:03.484Z,24.36
2023-04-24T19:07:34.349Z,24.28
2023-04-24T19:10:02.101Z,24.21
2023-04-24T19:12:32.298Z,24.53
2023-04-24T19:15:00.402Z,24.61
2023-04-24T19:17:28.052Z,24.84
2023-04-24T19:19:55.593Z,24.47
2023-04-24T19:22:24.535Z,24.88
2023-04-24T19:24:53.820Z,24.88
2023-04-24T19:27:21.448Z,25.19
2023-04-24T19:29:48.944Z,25.11
2023-04-24T19:32:17.001Z,25.32
2023-04-24T19:34:45.104Z,25.14
2023-04-24T19:37:13.612Z,25.05
2023-04-24T19:39:41.698Z,25.19
2023-04-24T19:42:09.751Z,25.25
2023-04-24T19:44:37.706Z,25.39
2023-04-24T19:47:05.594Z,25.48
2023-04-24T19:49:33.456Z,25.28
2023-04-24T19:52:01.366Z,25.28
2023-04-24T19:54:29.849Z,25.44
2023-04-24T19:56:58.400Z,25.27
2023-04-24T19:59:26.775Z,25.69
2023-04-24T20:01:55.318Z,25.51
2023-04-24T20:04:23.595Z,25.50
2023-04-24T20:06:51.479Z,25.92
2023-04-24T20:09:19.354Z,25.87
2023-04-24T20:11:50.290Z,25.95
2023-04-24T20:14:18.249Z,26.40
2023-04-24T20:16:46.013Z,26.43
2023-04-24T20:19:14.174Z,26.47
2023-04-24T20:21:41.875Z,26.64
2023-04-24T20:24:10.878Z,26.51
2023-04-24T20:26:38.826Z,26.46
2023-04-24T20:29:07.051Z,27.10
2023-04-24T20:31:35.529Z,26.88
2023-04-24T20:34:03.776Z,26.50
2023-04-24T20:36:31.322Z,26.78
2023-04-24T20:38:59.668Z,26.96
2023-04-24T20:41:27.667Z,26.69
2023-04-24T20:43:55.425Z,27.11
2023-04-24T20:46:23.001Z,27.30
2023-04-24T20:48:50.832Z,27.80
2023-04-24T20:51:19.742Z,27.81
2023-04-24T20:53:49.546Z,27.71
2023-04-24T20:56:17.430Z,27.78
2023-04-24T20:58:48.487Z,28.08
2023-04-24T21:01:16.690Z,28.23
2023-04-24T21:03:44.625Z,27.79
2023-04-24T21:06:13.790Z,27.91
2023-04-24T21:08:41.669Z,28.20
2023-04-24T21:11:09.466Z,28.29
2023-04-24T21:13:36.988Z,28.27
2023-04-24T21:16:04.593Z,28.33
2023-04-24T21:18:33.016Z,28.23
2023-04-24T21:21:00.606Z,28.50
2023-04-24T21:23:28.222Z,28.44
2023-04-24T21:25:55.725Z,28.70
2023-04-24T21:28:25.404Z,28.79
2023-04-24T21:30:53.074Z,28.97
2023-04-24T21:33:20.734Z,28.96
2023-04-24T21:35:48.401Z,28.91
2023-04-24T21:38:16.012Z,28.97
2023-04-24T21:40:43.619Z,29.08
2023-04-24T21:43:12.322Z,29.38
2023-04-24T21:45:39.995Z,29.52
2023-04-24T21:48:07.630Z,29.54
2023-04-24T21:50:35.398Z,30.06
2023-04-24T21:53:02.979Z,29.88
2023-04-24T21:55:30.664Z,29.89
2023-04-24T21:57:58.286Z,30.27
2023-04-24T22:00:25.752Z,30.03
2023-04-24T22:02:53.498Z,30.36
2023-04-24T22:05:21.113Z,30.43
2023-04-24T22:07:50.627Z,30.15
2023-04-24T22:10:18.624Z,30.47
2023-04-24T22:12:47.492Z,31.00
2023-04-24T22:15:15.039Z,30.79
2023-04-24T22:17:43.600Z,30.84
2023-04-24T22:20:11.413Z,30.83
2023-04-24T22:22:38.996Z,30.73
2023-04-24T22:25:07.236Z,31.42
2023-04-24T22:27:35.716Z,31.14
2023-04-24T22:30:03.941Z,31.13
2023-04-24T22:32:34.548Z,31.44
2023-04-24T22:35:02.283Z,31.62
2023-04-24T22:37:32.663Z,31.75
2023-04-24T22:40:01.413Z,31.86
2023-04-24T22:42:32.176Z,32.04
2023-04-24T22:44:59.878Z,32.37
2023-04-24T22:47:27.529Z,32.37
2023-04-24T22:49:55.252Z,32.60
2023-04-24T22:52:22.688Z,32.79
2023-04-24T22:54:50.793Z,33.17
2023-04-24T22:57:18.371Z,33.03
2023-04-24T22:59:45.943Z,33.50
2023-04-24T23:02:13.805Z,33.44
2023-04-24T23:04:41.425Z,33.32
2023-04-24T23:07:08.963Z,33.72
2023-04-24T23:09:36.584Z,33.82
2023-04-24T23:12:04.400Z,33.54
2023-04-24T23:14:32.152Z,34.27
2023-04-24T23:16:59.755Z,34.12
2023-04-24T23:19:27.428Z,34.22
2023-04-24T23:21:55.143Z,34.07
2023-04-24T23:24:22.704Z,34.04
2023-04-24T23:26:50.186Z,34.13
2023-04-24T23:29:17.746Z,34.21
2023-04-24T23:31:45.266Z,34.48
2023-04-24T23:34:12.750Z,34.28
2023-04-24T23:36:40.270Z,34.61
2023-04-24T23:39:08.041Z,34.55
2023-04-24T23:41:35.796Z,34.56
2023-04-24T23:44:03.254Z,34.80
2023-04-24T23:46:31.425Z,34.83
2023-04-24T23:48:58.927Z,34.87
2023-04-24T23:51:26.694Z,34.83
2023-04-24T23:53:54.268Z,35.11
2023-04-24T23:56:24.501Z,35.29
2023-04-24T23:58:54.630Z,35.18
